createdAt,value
2019-03-04T00:00:06.442Z,0
2019-03-04T00:00:46.901Z,0
2019-03-04T00:01:27.209Z,0
2019-03-04T00:02:09.226Z,0
2019-03-04T00:02:50.156Z,0
2019-03-04T00:03:30.795Z,0
2019-03-04T00:04:12.095Z,0
2019-03-04T00:04:52.511Z,0
2019-03-04T00:05:33.185Z,0
2019-03-04T00:06:13.588Z,0
2019-03-04T00:06:54.901Z,0
2019-03-04T00:07:37.501Z,0
2019-03-04T00:08:19.738Z,0
2019-03-04T00:09:02.019Z,0
2019-03-04T00:09:42.400Z,0
2019-03-04T00:10:23.744Z,0
2019-03-04T00:11:04.262Z,0
2019-03-04T00:11:44.625Z,0
2019-03-04T00:12:25.204Z,0
2019-03-04T00:13:05.583Z,0
2019-03-04T00:13:48.537Z,0
2019-03-04T00:14:29.930Z,0
2019-03-04T00:17:57.694Z,0
2019-03-04T00:20:18.794Z,0
2019-03-04T00:20:59.187Z,0
2019-03-04T00:21:39.715Z,0
2019-03-04T00:22:20.210Z,0
2019-03-04T00:23:00.710Z,0
2019-03-04T00:23:41.212Z,0
2019-03-04T00:24:21.649Z,0
2019-03-04T00:25:02.040Z,0
2019-03-04T00:25:42.787Z,0
2019-03-04T00:26:23.479Z,0
2019-03-04T00:27:04.015Z,0
2019-03-04T00:27:44.486Z,0
2019-03-04T00:28:24.894Z,0
2019-03-04T00:29:05.468Z,0
2019-03-04T00:29:46.029Z,0
2019-03-04T00:30:26.796Z,0
2019-03-04T00:31:07.563Z,0
2019-03-04T00:31:49.138Z,0
2019-03-04T00:32:30.583Z,0
2019-03-04T00:33:11.539Z,0
2019-03-04T00:33:51.769Z,0
2019-03-04T00:38:47.474Z,0
2019-03-04T00:39:26.257Z,0
2019-03-04T00:40:06.769Z,0
2019-03-04T00:40:47.718Z,0
2019-03-04T00:41:28.384Z,0
2019-03-04T00:42:09.199Z,0
2019-03-04T00:42:49.625Z,0
2019-03-04T00:43:30.093Z,0
2019-03-04T00:44:10.897Z,0
2019-03-04T00:44:51.587Z,0
2019-03-04T00:45:32.042Z,0
2019-03-04T00:46:12.676Z,0
2019-03-04T00:46:52.889Z,0
2019-03-04T00:47:33.507Z,0
2019-03-04T00:48:13.956Z,0
2019-03-04T00:48:54.806Z,0
2019-03-04T00:49:35.072Z,0
2019-03-04T00:50:19.989Z,0
2019-03-04T00:51:01.879Z,0
2019-03-04T00:51:42.893Z,0
2019-03-04T00:52:25.201Z,0
2019-03-04T00:53:06.188Z,0
2019-03-04T00:53:47.392Z,0
2019-03-04T00:54:28.002Z,0
2019-03-04T00:55:08.406Z,0
2019-03-04T00:55:48.982Z,0
2019-03-04T00:56:29.437Z,0
2019-03-04T00:57:09.737Z,0
2019-03-04T00:57:50.359Z,0
2019-03-04T00:58:31.018Z,0
2019-03-04T00:59:11.394Z,0
2019-03-04T01:01:53.757Z,0
2019-03-04T01:02:32.564Z,0
2019-03-04T01:03:12.964Z,0
2019-03-04T01:03:53.486Z,0
2019-03-04T01:04:33.751Z,0
2019-03-04T01:05:14.448Z,0
2019-03-04T01:05:54.942Z,0
2019-03-04T01:06:35.550Z,0
2019-03-04T01:07:16.037Z,0
2019-03-04T01:07:56.395Z,0
2019-03-04T01:08:36.787Z,0
2019-03-04T01:09:17.420Z,0
2019-03-04T01:11:52.826Z,0
2019-03-04T01:12:34.903Z,0
2019-03-04T01:13:15.916Z,0
2019-03-04T01:13:56.311Z,0
2019-03-04T01:14:36.719Z,0
2019-03-04T01:15:17.139Z,0
2019-03-04T01:15:57.521Z,0
2019-03-04T01:16:37.892Z,0
2019-03-04T01:17:18.564Z,0
2019-03-04T01:17:58.896Z,0
2019-03-04T01:18:39.314Z,0
2019-03-04T01:19:19.824Z,0
2019-03-04T01:20:00.353Z,0
2019-03-04T01:20:42.670Z,0
2019-03-04T01:21:24.952Z,0
2019-03-04T01:22:06.472Z,0
2019-03-04T01:22:47.059Z,0
2019-03-04T01:23:27.476Z,0
2019-03-04T01:24:08.027Z,0
2019-03-04T01:24:48.353Z,0
2019-03-04T01:25:28.888Z,0
2019-03-04T01:26:09.233Z,0
2019-03-04T01:26:51.338Z,0
2019-03-04T01:27:31.731Z,0
2019-03-04T01:28:12.162Z,0
2019-03-04T01:28:52.553Z,0
2019-03-04T01:29:34.611Z,0
2019-03-04T01:30:20.352Z,0
2019-03-04T01:31:02.594Z,0
2019-03-04T01:31:43.676Z,0
2019-03-04T01:32:25.106Z,0
2019-03-04T01:33:07.459Z,0
2019-03-04T01:33:47.995Z,0
2019-03-04T01:34:28.398Z,0
2019-03-04T01:35:08.852Z,0
2019-03-04T01:35:49.247Z,0
2019-03-04T01:36:29.752Z,0
2019-03-04T01:37:10.185Z,0
2019-03-04T01:37:54.020Z,0
2019-03-04T01:38:34.513Z,0
2019-03-04T01:39:16.745Z,0
2019-03-04T01:39:58.021Z,0
2019-03-04T01:40:38.455Z,0
2019-03-04T01:41:18.820Z,0
2019-03-04T01:41:59.278Z,0
2019-03-04T01:42:39.649Z,0
2019-03-04T01:43:20.370Z,0
2019-03-04T01:44:00.991Z,0
2019-03-04T01:44:43.262Z,0
2019-03-04T01:45:23.625Z,0
2019-03-04T01:46:03.987Z,0
2019-03-04T01:46:44.444Z,0
2019-03-04T01:47:24.757Z,0
2019-03-04T01:48:08.602Z,0
2019-03-04T01:48:50.856Z,0
2019-03-04T01:49:31.288Z,0
2019-03-04T01:50:11.617Z,0
2019-03-04T01:50:52.088Z,0
2019-03-04T01:51:34.346Z,0
2019-03-04T01:52:14.923Z,0
2019-03-04T01:52:55.683Z,0
2019-03-04T01:53:35.843Z,0
2019-03-04T01:54:16.268Z,0
2019-03-04T01:54:56.655Z,0
2019-03-04T01:55:37.155Z,0
2019-03-04T01:56:17.507Z,0
2019-03-04T01:56:59.625Z,0
2019-03-04T01:57:39.987Z,0
2019-03-04T01:58:20.476Z,0
2019-03-04T01:59:00.876Z,0
2019-03-04T01:59:41.205Z,0
2019-03-04T02:00:21.604Z,0
2019-03-04T02:01:03.205Z,0
2019-03-04T02:01:43.502Z,0
2019-03-04T02:02:23.837Z,0
2019-03-04T02:03:04.257Z,0
2019-03-04T02:03:44.754Z,0
2019-03-04T02:04:25.268Z,0
2019-03-04T02:05:05.624Z,0
2019-03-04T02:05:46.044Z,0
2019-03-04T02:06:26.403Z,0
2019-03-04T02:07:06.840Z,0
2019-03-04T02:07:47.261Z,0
2019-03-04T02:08:28.607Z,0
2019-03-04T02:09:09.136Z,0
2019-03-04T02:09:49.412Z,0
2019-03-04T02:10:30.705Z,0
2019-03-04T02:11:12.195Z,0
2019-03-04T02:11:52.663Z,0
2019-03-04T02:12:33.020Z,0
2019-03-04T02:13:13.422Z,0
2019-03-04T02:13:53.871Z,0
2019-03-04T02:14:34.315Z,0
2019-03-04T02:15:14.720Z,0
2019-03-04T02:15:55.173Z,0
2019-03-04T02:16:35.564Z,0
2019-03-04T02:17:15.921Z,0
2019-03-04T02:17:56.435Z,0
2019-03-04T02:18:36.758Z,0
2019-03-04T02:19:18.128Z,0
2019-03-04T02:19:58.773Z,0
2019-03-04T02:20:41.226Z,0
2019-03-04T02:21:23.161Z,0
2019-03-04T02:22:03.662Z,0
2019-03-04T02:22:44.237Z,0
2019-03-04T02:23:24.593Z,0
2019-03-04T02:24:04.963Z,0
2019-03-04T02:24:45.347Z,0
2019-03-04T02:25:25.982Z,0
2019-03-04T02:26:07.293Z,0
2019-03-04T02:26:48.604Z,0
2019-03-04T02:27:29.005Z,0
2019-03-04T02:28:09.404Z,0
2019-03-04T02:28:49.805Z,0
2019-03-04T02:29:32.067Z,0
2019-03-04T02:30:12.471Z,0
2019-03-04T02:30:52.871Z,0
2019-03-04T02:31:33.188Z,0
2019-03-04T02:32:13.591Z,0
2019-03-04T02:32:54.074Z,0
2019-03-04T02:33:34.690Z,0
2019-03-04T02:34:14.811Z,0
2019-03-04T02:34:55.552Z,0
2019-03-04T02:35:37.027Z,0
2019-03-04T02:36:17.446Z,0
2019-03-04T02:36:57.834Z,0
2019-03-04T02:37:38.263Z,0
2019-03-04T02:38:18.658Z,0
2019-03-04T02:38:59.027Z,0
2019-03-04T02:39:40.448Z,0
2019-03-04T02:40:20.852Z,0
2019-03-04T02:41:03.190Z,0
2019-03-04T02:41:43.603Z,0
2019-03-04T02:42:24.142Z,0
2019-03-04T02:43:04.531Z,0
2019-03-04T02:43:46.945Z,0
2019-03-04T02:44:28.301Z,0
2019-03-04T02:45:08.747Z,0
2019-03-04T02:45:49.173Z,0
2019-03-04T02:46:29.644Z,0
2019-03-04T02:47:10.047Z,0
2019-03-04T02:47:50.550Z,0
2019-03-04T02:48:31.905Z,0
2019-03-04T02:49:12.301Z,0
2019-03-04T02:49:55.534Z,0
2019-03-04T02:50:36.020Z,0
2019-03-04T02:51:16.353Z,0
2019-03-04T02:51:56.828Z,0
2019-03-04T02:52:39.067Z,0
2019-03-04T02:53:19.519Z,0
2019-03-04T02:54:01.697Z,0
2019-03-04T02:54:42.205Z,0
2019-03-04T02:55:23.623Z,0
2019-03-04T02:56:04.098Z,0
2019-03-04T02:56:44.440Z,0
2019-03-04T02:57:24.922Z,0
2019-03-04T02:58:05.324Z,0
2019-03-04T02:58:45.745Z,0
2019-03-04T02:59:26.114Z,0
2019-03-04T03:00:06.510Z,0
2019-03-04T03:00:47.863Z,0
2019-03-04T03:01:31.876Z,0
2019-03-04T03:02:12.662Z,0
2019-03-04T03:02:55.182Z,0
2019-03-04T03:03:35.555Z,0
2019-03-04T03:04:15.979Z,0
2019-03-04T03:04:56.378Z,0
2019-03-04T03:05:39.015Z,0
2019-03-04T03:06:19.463Z,0
2019-03-04T03:06:59.903Z,0
2019-03-04T03:07:40.273Z,0
2019-03-04T03:08:22.197Z,0
2019-03-04T03:09:02.594Z,0
2019-03-04T03:09:44.004Z,0
2019-03-04T03:10:24.509Z,0
2019-03-04T03:11:06.782Z,0
2019-03-04T03:11:47.139Z,0
2019-03-04T03:12:27.740Z,0
2019-03-04T03:13:08.282Z,0
2019-03-04T03:13:48.919Z,0
2019-03-04T03:14:31.269Z,0
2019-03-04T03:15:11.642Z,0
2019-03-04T03:15:52.116Z,0
2019-03-04T03:16:32.481Z,0
2019-03-04T03:17:12.926Z,0
2019-03-04T03:17:53.307Z,0
2019-03-04T03:18:33.701Z,0
2019-03-04T03:19:17.751Z,0
2019-03-04T03:19:58.081Z,0
2019-03-04T03:20:40.410Z,0
2019-03-04T03:21:20.857Z,0
2019-03-04T03:22:01.325Z,0
2019-03-04T03:22:42.605Z,0
2019-03-04T03:23:24.537Z,0
2019-03-04T03:24:05.041Z,0
2019-03-04T03:24:45.470Z,0
2019-03-04T03:25:26.961Z,0
2019-03-04T03:26:07.353Z,0
2019-03-04T03:26:47.845Z,0
2019-03-04T03:27:28.262Z,0
2019-03-04T03:28:08.775Z,0
2019-03-04T03:28:49.074Z,0
2019-03-04T03:29:29.502Z,0
2019-03-04T03:30:09.891Z,0
2019-03-04T03:30:50.270Z,0
2019-03-04T03:31:30.708Z,0
2019-03-04T03:32:11.258Z,0
2019-03-04T03:32:51.568Z,0
2019-03-04T03:33:32.940Z,0
2019-03-04T03:34:13.540Z,0
2019-03-04T03:34:53.749Z,0
2019-03-04T03:35:34.111Z,0
2019-03-04T03:36:14.572Z,0
2019-03-04T03:36:54.948Z,0
2019-03-04T03:37:35.466Z,0
2019-03-04T03:38:15.876Z,0
2019-03-04T03:38:56.284Z,0
2019-03-04T03:39:36.729Z,0
2019-03-04T03:40:17.063Z,0
2019-03-04T03:40:57.438Z,0
2019-03-04T03:41:37.856Z,0
2019-03-04T03:42:19.095Z,0
2019-03-04T03:42:58.747Z,0
2019-03-04T03:43:39.140Z,0
2019-03-04T03:44:19.518Z,0
2019-03-04T03:44:59.941Z,0
2019-03-04T03:45:40.338Z,0
2019-03-04T03:46:20.727Z,0
2019-03-04T03:47:01.235Z,0
2019-03-04T03:47:41.663Z,0
2019-03-04T03:48:22.186Z,0
2019-03-04T03:49:06.187Z,0
2019-03-04T03:49:48.627Z,0
2019-03-04T03:50:28.970Z,0
2019-03-04T03:51:09.407Z,0
2019-03-04T03:51:51.648Z,0
2019-03-04T03:52:32.100Z,0
2019-03-04T03:53:14.069Z,0
2019-03-04T03:53:54.495Z,0
2019-03-04T03:54:34.965Z,0
2019-03-04T03:55:15.383Z,0
2019-03-04T03:55:56.707Z,0
2019-03-04T03:56:37.145Z,0
2019-03-04T03:57:19.248Z,0
2019-03-04T03:57:59.811Z,0
2019-03-04T03:58:40.160Z,0
2019-03-04T03:59:20.538Z,0
2019-03-04T04:00:00.967Z,0
2019-03-04T04:00:41.317Z,0
2019-03-04T04:01:21.775Z,0
2019-03-04T04:02:02.140Z,0
2019-03-04T04:02:42.511Z,0
2019-03-04T04:03:22.987Z,0
2019-03-04T04:04:03.482Z,0
2019-03-04T04:04:43.800Z,0
2019-03-04T04:05:24.228Z,0
2019-03-04T04:06:04.661Z,0
2019-03-04T04:06:45.192Z,0
2019-03-04T04:07:25.704Z,0
2019-03-04T04:08:06.314Z,0
2019-03-04T04:08:46.683Z,0
2019-03-04T04:09:27.133Z,0
2019-03-04T04:10:07.522Z,0
2019-03-04T04:10:47.922Z,0
2019-03-04T04:11:28.474Z,0
2019-03-04T04:12:08.896Z,0
2019-03-04T04:12:49.306Z,0
2019-03-04T04:13:29.849Z,0
2019-03-04T04:14:10.168Z,0
2019-03-04T04:14:50.615Z,0
2019-03-04T04:15:31.068Z,0
2019-03-04T04:16:11.310Z,0
2019-03-04T04:16:51.830Z,0
2019-03-04T04:17:32.228Z,0
2019-03-04T04:18:12.568Z,0
2019-03-04T04:18:53.065Z,0
2019-03-04T04:19:33.460Z,0
2019-03-04T04:20:15.510Z,0
2019-03-04T04:20:56.807Z,0
2019-03-04T04:21:37.214Z,0
2019-03-04T04:22:19.161Z,0
2019-03-04T04:22:59.599Z,0
2019-03-04T04:23:40.968Z,0
2019-03-04T04:24:21.356Z,0
2019-03-04T04:25:02.788Z,0
2019-03-04T04:25:43.126Z,0
2019-03-04T04:26:23.555Z,0
2019-03-04T04:27:03.979Z,0
2019-03-04T05:06:57.545Z,0
2019-03-04T05:07:34.656Z,0
2019-03-04T05:08:15.251Z,0
2019-03-04T05:08:56.272Z,0
2019-03-04T05:09:36.367Z,0
2019-03-04T05:10:17.028Z,0
2019-03-04T05:10:57.811Z,0
2019-03-04T05:11:38.582Z,0
2019-03-04T05:12:19.134Z,0
2019-03-04T05:12:59.527Z,0
2019-03-04T05:13:39.971Z,0
2019-03-04T05:14:20.501Z,0
2019-03-04T05:15:01.552Z,0
2019-03-04T05:15:42.611Z,0
2019-03-04T05:16:23.393Z,0
2019-03-04T05:17:03.982Z,0
2019-03-04T05:17:44.633Z,0
2019-03-04T05:18:25.619Z,0
2019-03-04T05:19:06.914Z,0
2019-03-04T05:19:47.530Z,0
2019-03-04T05:20:28.214Z,0
2019-03-04T05:21:08.970Z,0
2019-03-04T05:21:49.523Z,0
2019-03-04T05:22:30.137Z,0
2019-03-04T05:23:10.721Z,0
2019-03-04T05:23:51.301Z,0
2019-03-04T05:24:31.868Z,0
2019-03-04T05:25:12.606Z,0
2019-03-04T05:25:53.061Z,0
2019-03-04T05:26:33.532Z,0
2019-03-04T05:27:14.162Z,0
2019-03-04T05:27:55.070Z,0
2019-03-04T05:28:35.766Z,0
2019-03-04T05:29:16.330Z,0
2019-03-04T05:29:57.256Z,0
2019-03-04T05:30:38.061Z,0
2019-03-04T05:31:18.639Z,0
2019-03-04T05:31:59.146Z,0
2019-03-04T05:32:40.211Z,0
2019-03-04T05:33:20.463Z,0
2019-03-04T05:34:00.918Z,0
2019-03-04T05:34:41.408Z,0
2019-03-04T05:35:22.285Z,0
2019-03-04T05:36:02.967Z,0
2019-03-04T05:36:43.823Z,0
2019-03-04T05:37:24.815Z,0
2019-03-04T05:38:05.411Z,0
2019-03-04T05:38:46.049Z,0
2019-03-04T05:39:27.212Z,0
2019-03-04T05:40:07.507Z,0
2019-03-04T05:40:48.164Z,0
2019-03-04T05:41:28.743Z,0
2019-03-04T05:42:09.054Z,0
2019-03-04T05:42:49.873Z,0
2019-03-04T05:43:30.400Z,0
2019-03-04T05:44:10.943Z,0
2019-03-04T05:44:51.868Z,0
2019-03-04T05:45:32.584Z,0
2019-03-04T05:46:13.255Z,0
2019-03-04T05:46:53.821Z,0
2019-03-04T05:47:34.427Z,0
2019-03-04T05:48:15.403Z,0
2019-03-04T05:48:56.312Z,0
2019-03-04T05:51:36.443Z,0
2019-03-04T05:52:16.857Z,0
2019-03-04T05:52:57.302Z,0
2019-03-04T05:53:37.844Z,0
2019-03-04T05:54:18.272Z,0
2019-03-04T05:54:58.958Z,0
2019-03-04T05:55:39.464Z,0
2019-03-04T05:56:20.118Z,0
2019-03-04T05:57:00.689Z,0
2019-03-04T05:57:41.344Z,0
2019-03-04T05:58:21.923Z,0
2019-03-04T05:59:02.452Z,0
2019-03-04T05:59:43.127Z,0
2019-03-04T06:00:23.894Z,0
2019-03-04T06:01:04.330Z,0
2019-03-04T06:01:44.771Z,0
2019-03-04T06:02:25.367Z,0
2019-03-04T06:03:06.269Z,0
2019-03-04T06:03:46.827Z,0
2019-03-04T06:04:27.504Z,0
2019-03-04T06:05:08.198Z,0
2019-03-04T06:05:48.821Z,0
2019-03-04T06:06:29.254Z,0
2019-03-04T06:07:10.072Z,0
2019-03-04T06:07:50.962Z,0
2019-03-04T06:08:31.815Z,0
2019-03-04T06:09:12.120Z,0
2019-03-04T06:09:52.877Z,0
2019-03-04T06:10:36.914Z,0
2019-03-04T06:11:17.527Z,0
2019-03-04T06:11:57.985Z,0
2019-03-04T06:12:39.013Z,0
2019-03-04T06:13:19.500Z,0
2019-03-04T06:14:00.286Z,0
2019-03-04T06:14:41.188Z,0
2019-03-04T06:15:21.759Z,0
2019-03-04T06:16:02.287Z,0
2019-03-04T06:16:47.150Z,0
2019-03-04T06:17:23.421Z,0
2019-03-04T06:18:04.000Z,0
2019-03-04T06:18:47.576Z,0
2019-03-04T06:19:30.429Z,0
2019-03-04T06:20:10.678Z,0
2019-03-04T06:20:51.649Z,0
2019-03-04T06:21:32.764Z,0
2019-03-04T06:22:13.500Z,0
2019-03-04T06:22:54.219Z,0
2019-03-04T06:23:35.016Z,0
2019-03-04T06:24:15.447Z,0
2019-03-04T06:24:55.882Z,0
2019-03-04T06:25:36.510Z,0
2019-03-04T06:26:16.978Z,0
2019-03-04T06:26:57.804Z,0
2019-03-04T06:27:38.515Z,0
2019-03-04T06:28:29.823Z,0
2019-03-04T06:29:12.885Z,0
2019-03-04T06:29:53.592Z,0
2019-03-04T06:30:34.323Z,0
2019-03-04T06:31:14.909Z,0
2019-03-04T06:31:55.970Z,0
2019-03-04T06:32:38.671Z,0
2019-03-04T06:33:19.275Z,0
2019-03-04T06:34:00.177Z,0
2019-03-04T06:34:40.844Z,0
2019-03-04T06:37:16.043Z,0
2019-03-04T06:37:56.408Z,0
2019-03-04T06:38:36.822Z,0
2019-03-04T06:39:17.213Z,0
2019-03-04T06:39:59.382Z,0
2019-03-04T06:40:40.803Z,0
2019-03-04T06:41:21.193Z,0
2019-03-04T06:42:01.643Z,0
2019-03-04T06:42:42.229Z,0
2019-03-04T06:43:22.488Z,0
2019-03-04T06:44:03.797Z,0
2019-03-04T06:44:44.370Z,0
2019-03-04T06:45:24.766Z,0
2019-03-04T06:46:06.086Z,0
2019-03-04T06:46:46.492Z,0
2019-03-04T06:47:27.876Z,0
2019-03-04T06:48:09.834Z,0
2019-03-04T06:48:50.698Z,0
2019-03-04T06:49:31.046Z,0
2019-03-04T06:50:14.173Z,0
2019-03-04T06:50:56.321Z,0
2019-03-04T06:51:36.716Z,0
2019-03-04T06:52:17.207Z,0
2019-03-04T06:52:58.488Z,0
2019-03-04T06:53:39.917Z,0
2019-03-04T06:54:20.354Z,0
2019-03-04T06:55:03.743Z,0
2019-03-04T06:55:44.990Z,0
2019-03-04T06:56:26.731Z,0
2019-03-04T06:57:10.663Z,0
2019-03-04T06:57:50.011Z,0
2019-03-04T06:58:30.518Z,0
2019-03-04T06:59:15.245Z,0
2019-03-04T06:59:55.976Z,0
2019-03-04T07:00:37.369Z,0
2019-03-04T07:01:18.846Z,0
2019-03-04T07:01:59.671Z,0
2019-03-04T07:02:42.938Z,0
2019-03-04T07:03:24.714Z,0
2019-03-04T07:04:05.124Z,0
2019-03-04T07:04:45.772Z,0
2019-03-04T07:05:27.486Z,0
2019-03-04T07:06:09.963Z,0
2019-03-04T07:06:50.314Z,0
2019-03-04T07:07:30.807Z,0
2019-03-04T07:08:12.278Z,5
2019-03-04T07:08:59.148Z,5
2019-03-04T07:09:41.109Z,5
2019-03-04T07:10:23.593Z,5
2019-03-04T07:11:05.617Z,10
2019-03-04T07:11:46.012Z,10
2019-03-04T07:12:26.431Z,10
2019-03-04T07:13:06.781Z,10
2019-03-04T07:13:47.178Z,5
2019-03-04T07:14:30.289Z,5
2019-03-04T07:15:10.707Z,5
2019-03-04T07:15:52.636Z,0
2019-03-04T07:16:34.844Z,0
2019-03-04T07:17:15.321Z,0
2019-03-04T07:17:55.746Z,0
2019-03-04T07:18:36.157Z,0
2019-03-04T07:19:16.523Z,0
2019-03-04T07:19:56.998Z,0
2019-03-04T07:20:37.410Z,0
2019-03-04T07:21:17.788Z,0
2019-03-04T07:21:58.272Z,0
2019-03-04T07:22:39.591Z,0
2019-03-04T07:23:20.061Z,0
2019-03-04T07:24:00.602Z,0
2019-03-04T07:24:40.875Z,0
2019-03-04T07:25:23.296Z,0
2019-03-04T07:26:05.037Z,5
2019-03-04T07:26:45.427Z,5
2019-03-04T07:27:25.876Z,5
2019-03-04T07:28:06.242Z,5
2019-03-04T07:28:46.714Z,0
2019-03-04T07:29:27.145Z,0
2019-03-04T07:30:07.540Z,0
2019-03-04T07:30:47.872Z,0
2019-03-04T07:31:28.271Z,0
2019-03-04T07:32:08.746Z,0
2019-03-04T07:32:50.205Z,0
2019-03-04T07:33:30.645Z,0
2019-03-04T07:34:12.954Z,0
2019-03-04T07:34:53.368Z,5
2019-03-04T07:35:33.782Z,5
2019-03-04T07:36:14.319Z,5
2019-03-04T07:36:54.657Z,5
2019-03-04T07:37:35.114Z,10
2019-03-04T07:38:15.513Z,10
2019-03-04T07:38:57.696Z,15
2019-03-04T07:39:38.111Z,15
2019-03-04T07:40:18.638Z,15
2019-03-04T07:40:59.065Z,20
2019-03-04T07:41:39.498Z,25
2019-03-04T07:42:19.897Z,25
2019-03-04T07:43:00.434Z,25
2019-03-04T07:43:40.844Z,30
2019-03-04T07:44:21.239Z,25
2019-03-04T07:45:02.577Z,25
2019-03-04T07:45:44.532Z,25
2019-03-04T07:46:25.956Z,25
2019-03-04T07:47:06.282Z,25
2019-03-04T07:47:48.617Z,25
2019-03-04T07:48:29.889Z,25
2019-03-04T07:49:11.296Z,25
2019-03-04T07:49:53.909Z,25
2019-03-04T07:50:34.217Z,25
2019-03-04T07:51:14.508Z,20
2019-03-04T07:51:55.874Z,20
2019-03-04T07:52:37.252Z,20
2019-03-04T07:53:19.128Z,20
2019-03-04T07:53:58.170Z,15
2019-03-04T07:54:38.578Z,15
2019-03-04T07:55:20.991Z,15
2019-03-04T07:56:01.265Z,15
2019-03-04T07:56:42.799Z,15
2019-03-04T07:57:23.128Z,15
2019-03-04T07:58:03.597Z,15
2019-03-04T07:58:45.092Z,15
2019-03-04T07:59:25.467Z,15
2019-03-04T08:00:05.796Z,20
2019-03-04T08:00:46.290Z,20
2019-03-04T08:01:28.445Z,20
2019-03-04T08:02:08.843Z,45
2019-03-04T08:02:51.135Z,45
2019-03-04T08:03:31.698Z,40
2019-03-04T08:04:11.949Z,35
2019-03-04T08:04:55.313Z,40
2019-03-04T08:05:35.667Z,45
2019-03-04T08:06:16.026Z,40
2019-03-04T08:06:56.566Z,60
2019-03-04T08:07:36.877Z,55
2019-03-04T08:08:17.493Z,65
2019-03-04T08:08:57.945Z,40
2019-03-04T08:09:38.278Z,35
2019-03-04T08:10:18.667Z,30
2019-03-04T08:11:01.138Z,30
2019-03-04T08:11:39.567Z,25
2019-03-04T08:12:20.275Z,25
2019-03-04T08:13:02.376Z,25
2019-03-04T08:13:42.713Z,25
2019-03-04T08:14:23.150Z,25
2019-03-04T08:15:04.538Z,25
2019-03-04T08:15:46.619Z,20
2019-03-04T08:16:27.088Z,20
2019-03-04T08:17:09.239Z,20
2019-03-04T08:17:49.704Z,20
2019-03-04T08:18:30.907Z,30
2019-03-04T08:19:12.559Z,20
2019-03-04T08:19:52.912Z,20
2019-03-04T08:20:34.279Z,25
2019-03-04T08:21:14.636Z,25
2019-03-04T08:21:55.120Z,25
2019-03-04T08:22:35.431Z,25
2019-03-04T08:23:17.563Z,20
2019-03-04T08:24:00.057Z,20
2019-03-04T08:24:40.413Z,25
2019-03-04T08:25:20.870Z,25
2019-03-04T08:26:02.174Z,50
2019-03-04T08:26:42.539Z,50
2019-03-04T08:27:22.993Z,55
2019-03-04T08:28:03.545Z,55
2019-03-04T08:28:44.154Z,55
2019-03-04T08:29:24.485Z,55
2019-03-04T08:30:04.919Z,55
2019-03-04T08:30:45.307Z,55
2019-03-04T08:31:25.746Z,60
2019-03-04T08:32:07.081Z,60
2019-03-04T08:32:47.590Z,60
2019-03-04T08:33:27.878Z,60
2019-03-04T08:34:09.308Z,60
2019-03-04T08:34:48.736Z,60
2019-03-04T08:35:30.149Z,40
2019-03-04T08:36:10.669Z,55
2019-03-04T08:36:53.870Z,60
2019-03-04T08:37:34.361Z,60
2019-03-04T08:38:14.831Z,65
2019-03-04T08:38:55.256Z,50
2019-03-04T08:39:36.644Z,65
2019-03-04T08:40:18.673Z,65
2019-03-04T08:40:59.382Z,65
2019-03-04T08:41:39.840Z,60
2019-03-04T08:42:20.152Z,60
2019-03-04T08:43:01.503Z,60
2019-03-04T08:43:42.117Z,60
2019-03-04T08:44:22.877Z,60
2019-03-04T08:45:03.483Z,60
2019-03-04T08:45:43.911Z,65
2019-03-04T08:46:24.378Z,65
2019-03-04T08:47:04.866Z,70
2019-03-04T08:47:47.831Z,70
2019-03-04T08:48:28.291Z,75
2019-03-04T08:49:08.687Z,65
2019-03-04T08:49:49.229Z,65
2019-03-04T08:50:29.681Z,50
2019-03-04T08:51:10.137Z,70
2019-03-04T08:51:50.464Z,75
2019-03-04T08:52:30.893Z,80
2019-03-04T08:53:13.581Z,80
2019-03-04T08:53:57.620Z,80
2019-03-04T08:54:38.008Z,75
2019-03-04T08:55:18.400Z,55
2019-03-04T08:55:58.853Z,65
2019-03-04T08:56:39.449Z,50
2019-03-04T08:57:21.069Z,75
2019-03-04T08:58:01.444Z,50
2019-03-04T08:58:41.921Z,50
2019-03-04T08:59:22.274Z,45
2019-03-04T09:00:02.721Z,45
2019-03-04T09:00:43.997Z,45
2019-03-04T09:01:24.551Z,40
2019-03-04T09:02:04.938Z,40
2019-03-04T09:02:45.341Z,40
2019-03-04T09:03:25.690Z,45
2019-03-04T09:04:07.050Z,45
2019-03-04T09:04:47.599Z,45
2019-03-04T09:05:28.008Z,45
2019-03-04T09:06:08.379Z,40
2019-03-04T09:06:49.697Z,40
2019-03-04T09:07:30.107Z,40
2019-03-04T09:08:10.548Z,40
2019-03-04T09:08:50.954Z,40
2019-03-04T09:09:31.410Z,40
2019-03-04T09:10:11.911Z,45
2019-03-04T09:10:52.338Z,45
2019-03-04T09:11:32.697Z,50
2019-03-04T09:12:14.099Z,45
2019-03-04T09:12:54.492Z,40
2019-03-04T09:13:35.031Z,45
2019-03-04T09:14:15.477Z,40
2019-03-04T09:14:55.867Z,50
2019-03-04T09:15:38.762Z,45
2019-03-04T09:16:19.154Z,45
2019-03-04T09:16:59.684Z,40
2019-03-04T09:17:40.114Z,45
2019-03-04T09:18:20.654Z,45
2019-03-04T09:19:01.813Z,45
2019-03-04T09:19:42.178Z,45
2019-03-04T09:20:23.556Z,50
2019-03-04T09:21:03.962Z,65
2019-03-04T09:21:45.486Z,45
2019-03-04T09:22:26.208Z,50
2019-03-04T09:23:09.416Z,45
2019-03-04T09:23:50.078Z,75
2019-03-04T09:24:30.246Z,60
2019-03-04T09:25:12.375Z,75
2019-03-04T09:25:53.720Z,50
2019-03-04T09:26:34.128Z,65
2019-03-04T09:27:18.451Z,70
2019-03-04T09:27:58.914Z,65
2019-03-04T09:28:39.288Z,50
2019-03-04T09:29:19.717Z,50
2019-03-04T09:30:00.293Z,50
2019-03-04T09:30:42.446Z,50
2019-03-04T09:31:23.955Z,50
2019-03-04T09:32:04.276Z,55
2019-03-04T09:32:47.108Z,55
2019-03-04T09:33:27.647Z,60
2019-03-04T09:34:08.050Z,60
2019-03-04T09:37:54.736Z,55
2019-03-04T09:38:36.080Z,55
2019-03-04T09:39:16.501Z,55
2019-03-04T09:39:56.937Z,55
2019-03-04T09:40:37.315Z,50
2019-03-04T09:41:17.749Z,45
2019-03-04T09:41:58.103Z,40
2019-03-04T09:42:38.621Z,35
2019-03-04T09:43:18.896Z,35
2019-03-04T09:43:59.389Z,35
2019-03-04T09:44:39.781Z,35
2019-03-04T09:45:20.140Z,35
2019-03-04T09:46:00.710Z,40
2019-03-04T09:46:41.053Z,45
2019-03-04T09:47:21.533Z,50
2019-03-04T09:48:04.814Z,50
2019-03-04T09:48:45.346Z,45
2019-03-04T09:49:25.714Z,45
2019-03-04T09:50:07.045Z,45
2019-03-04T09:50:47.618Z,45
2019-03-04T09:51:27.950Z,65
2019-03-04T09:52:08.586Z,45
2019-03-04T09:52:48.869Z,45
2019-03-04T09:53:38.819Z,45
2019-03-04T09:54:09.881Z,55
2019-03-04T09:54:50.243Z,40
2019-03-04T09:55:30.720Z,50
2019-03-04T09:56:12.037Z,50
2019-03-04T09:56:52.400Z,70
2019-03-04T09:57:34.596Z,65
2019-03-04T09:58:15.167Z,55
2019-03-04T09:58:55.501Z,70
2019-03-04T09:59:36.030Z,70
2019-03-04T10:00:16.596Z,70
2019-03-04T10:00:56.981Z,55
2019-03-04T10:01:37.393Z,75
2019-03-04T10:02:21.449Z,75
2019-03-04T10:03:01.896Z,85
2019-03-04T10:03:44.219Z,75
2019-03-04T10:04:24.732Z,80
2019-03-04T10:05:05.193Z,55
2019-03-04T10:05:45.615Z,60
2019-03-04T10:06:26.059Z,55
2019-03-04T10:07:06.448Z,85
2019-03-04T10:07:46.899Z,85
2019-03-04T10:08:32.701Z,85
2019-03-04T10:09:07.777Z,65
2019-03-04T10:09:48.286Z,60
2019-03-04T10:10:28.561Z,85
2019-03-04T10:11:08.987Z,85
2019-03-04T10:11:49.638Z,85
2019-03-04T10:12:30.068Z,85
2019-03-04T10:13:10.578Z,85
2019-03-04T10:13:51.163Z,65
2019-03-04T10:14:32.605Z,75
2019-03-04T10:15:12.960Z,65
2019-03-04T10:15:53.435Z,80
2019-03-04T10:16:33.913Z,75
2019-03-04T10:17:14.233Z,95
2019-03-04T10:17:56.324Z,100
2019-03-04T10:18:36.725Z,90
2019-03-04T10:19:17.103Z,90
2019-03-04T10:19:57.537Z,80
2019-03-04T10:20:38.003Z,95
2019-03-04T10:21:20.400Z,75
2019-03-04T10:22:00.796Z,80
2019-03-04T10:22:43.188Z,75
2019-03-04T10:23:24.528Z,100
2019-03-04T10:24:06.860Z,100
2019-03-04T10:24:47.274Z,80
2019-03-04T10:25:27.712Z,95
2019-03-04T10:26:09.013Z,85
2019-03-04T10:26:49.534Z,70
2019-03-04T10:27:29.974Z,70
2019-03-04T10:28:10.419Z,70
2019-03-04T11:07:36.753Z,35
2019-03-04T11:08:17.346Z,35
2019-03-04T11:08:58.781Z,40
2019-03-04T11:09:39.104Z,35
2019-03-04T11:10:21.466Z,40
2019-03-04T11:11:01.903Z,40
2019-03-04T11:11:43.613Z,40
2019-03-04T11:12:23.849Z,40
2019-03-04T11:13:04.258Z,40
2019-03-04T11:13:44.648Z,40
2019-03-04T11:14:25.161Z,40
2019-03-04T11:15:05.561Z,35
2019-03-04T11:15:47.562Z,35
2019-03-04T11:16:28.003Z,35
2019-03-04T11:17:09.412Z,35
2019-03-04T11:17:54.499Z,35
2019-03-04T11:18:34.163Z,35
2019-03-04T11:19:14.541Z,35
2019-03-04T11:19:54.940Z,40
2019-03-04T11:20:36.244Z,45
2019-03-04T11:21:18.557Z,45
2019-03-04T11:21:59.053Z,45
2019-03-04T11:22:39.467Z,45
2019-03-04T11:23:19.974Z,45
2019-03-04T11:24:00.399Z,45
2019-03-04T11:24:40.872Z,45
2019-03-04T11:25:22.319Z,45
2019-03-04T11:26:02.598Z,45
2019-03-04T11:26:43.082Z,40
2019-03-04T11:36:56.617Z,5
2019-03-04T11:37:36.967Z,5
2019-03-04T11:38:17.423Z,5
2019-03-04T11:38:59.666Z,5
2019-03-04T11:39:40.024Z,5
2019-03-04T11:40:20.407Z,10
2019-03-04T11:41:00.841Z,10
2019-03-04T11:41:41.440Z,10
2019-03-04T11:45:20.254Z,10
2019-03-04T11:46:00.693Z,10
2019-03-04T11:46:42.800Z,10